MOLOT EGCM-EGLF
Flight info
| Callsign | MOLOT |
|---|---|
| Flight time | 0h 51m |
| Altitude | 21000 |
| Route | GOLES Y70 POL DCT MCT DCT LISTO P18 TELBA L151 KIDLI N859 CPT |
| Aircraft | CL60/M-SBDE1E2E3FGHIJ1J4J5J7M3RWXYZ/LB1V1D1 |
Departure
| Time | 2026-04-21 20:14 |
|---|---|
| Airport | Leeds East Airport (EGCM) |
Arrival
| Time | 2026-04-21 21:05 |
|---|---|
| Airport | Farnborough Airport (EGLF) |
| Time | Latitude | Longitude | Altitude | Speed | Heading |
|---|---|---|---|---|---|
| 2026-04-21 19:43 | 53.83466 | -1.19918 | 34 ft | 0 kts | 313° |
| 2026-04-21 20:10 | 53.83472 | -1.19928 | 33 ft | 3 kts | 313° |
| 2026-04-21 20:10 | 53.83476 | -1.19973 | 33 ft | 6 kts | 234° |
| 2026-04-21 20:10 | 53.83453 | -1.20056 | 33 ft | 9 kts | 249° |
| 2026-04-21 20:10 | 53.83436 | -1.20158 | 34 ft | 9 kts | 260° |
| 2026-04-21 20:11 | 53.83428 | -1.20266 | 33 ft | 9 kts | 261° |
| 2026-04-21 20:11 | 53.83395 | -1.20386 | 34 ft | 9 kts | 237° |
| 2026-04-21 20:11 | 53.83362 | -1.20468 | 33 ft | 10 kts | 236° |
| 2026-04-21 20:11 | 53.83313 | -1.20538 | 33 ft | 9 kts | 205° |
| 2026-04-21 20:12 | 53.83251 | -1.20587 | 33 ft | 8 kts | 206° |
| 2026-04-21 20:12 | 53.83196 | -1.20631 | 33 ft | 4 kts | 204° |
| 2026-04-21 20:12 | 53.83154 | -1.20654 | 33 ft | 7 kts | 189° |
| 2026-04-21 20:12 | 53.83098 | -1.20659 | 33 ft | 7 kts | 182° |
| 2026-04-21 20:13 | 53.83038 | -1.20661 | 33 ft | 6 kts | 175° |
| 2026-04-21 20:13 | 53.83001 | -1.20634 | 33 ft | 5 kts | 133° |
| 2026-04-21 20:13 | 53.83001 | -1.20604 | 33 ft | 0 kts | 51° |
| 2026-04-21 20:13 | 53.83004 | -1.20599 | 33 ft | 0 kts | 51° |
| 2026-04-21 20:14 | 53.83147 | -1.20261 | 33 ft | 90 kts | 54° |
| 2026-04-21 20:14 | 53.83682 | -1.19000 | 434 ft | 155 kts | 54° |
| 2026-04-21 20:14 | 53.84329 | -1.17479 | 1487 ft | 173 kts | 54° |
| 2026-04-21 20:14 | 53.84931 | -1.15616 | 2410 ft | 206 kts | 73° |
| 2026-04-21 20:15 | 53.84987 | -1.13125 | 3713 ft | 219 kts | 97° |
| 2026-04-21 20:15 | 53.84559 | -1.10634 | 4798 ft | 237 kts | 108° |
| 2026-04-21 20:15 | 53.83907 | -1.08053 | 5036 ft | 235 kts | 116° |
| 2026-04-21 20:15 | 53.82772 | -1.06094 | 5036 ft | 239 kts | 148° |
| 2026-04-21 20:16 | 53.81128 | -1.05571 | 5023 ft | 253 kts | 182° |
| 2026-04-21 20:16 | 53.79391 | -1.06857 | 5713 ft | 297 kts | 212° |
| 2026-04-21 20:16 | 53.77816 | -1.08821 | 7749 ft | 287 kts | 213° |
| 2026-04-21 20:16 | 53.76302 | -1.10752 | 9579 ft | 280 kts | 213° |
| 2026-04-21 20:17 | 53.74792 | -1.12674 | 11049 ft | 282 kts | 212° |
| 2026-04-21 20:17 | 53.73059 | -1.14073 | 12348 ft | 284 kts | 190° |
| 2026-04-21 20:17 | 53.71013 | -1.14149 | 12918 ft | 310 kts | 163° |
| 2026-04-21 20:17 | 53.68860 | -1.13280 | 13709 ft | 334 kts | 169° |
| 2026-04-21 20:18 | 53.67292 | -1.13307 | 14350 ft | 350 kts | 185° |
| 2026-04-21 20:18 | 53.64298 | -1.15713 | 15539 ft | 373 kts | 220° |
| 2026-04-21 20:18 | 53.62808 | -1.19226 | 16426 ft | 380 kts | 246° |
| 2026-04-21 20:18 | 53.62302 | -1.23559 | 17338 ft | 384 kts | 271° |
| 2026-04-21 20:19 | 53.62785 | -1.28008 | 18196 ft | 388 kts | 285° |
| 2026-04-21 20:19 | 53.63496 | -1.32385 | 19060 ft | 388 kts | 285° |
| 2026-04-21 20:19 | 53.64188 | -1.36719 | 19934 ft | 389 kts | 285° |
| 2026-04-21 20:19 | 53.64881 | -1.41163 | 20786 ft | 393 kts | 285° |
| 2026-04-21 20:20 | 53.65565 | -1.45626 | 21279 ft | 401 kts | 285° |
| 2026-04-21 20:20 | 53.66253 | -1.50214 | 21452 ft | 399 kts | 284° |
| 2026-04-21 20:20 | 53.66920 | -1.54751 | 21512 ft | 396 kts | 284° |
| 2026-04-21 20:20 | 53.67561 | -1.59206 | 21514 ft | 393 kts | 284° |
| 2026-04-21 20:21 | 53.68179 | -1.63698 | 21456 ft | 389 kts | 283° |
| 2026-04-21 20:21 | 53.68789 | -1.68190 | 21401 ft | 387 kts | 283° |
| 2026-04-21 20:21 | 53.69379 | -1.72564 | 21387 ft | 386 kts | 283° |
| 2026-04-21 20:21 | 53.69978 | -1.77029 | 21386 ft | 387 kts | 283° |
| 2026-04-21 20:22 | 53.70569 | -1.81462 | 21386 ft | 387 kts | 283° |
| 2026-04-21 20:22 | 53.71766 | -1.90508 | 21386 ft | 408 kts | 282° |
| 2026-04-21 20:22 | 53.72300 | -1.95236 | 21392 ft | 412 kts | 275° |
| 2026-04-21 20:23 | 53.72214 | -2.00041 | 21397 ft | 413 kts | 260° |
| 2026-04-21 20:23 | 53.71388 | -2.04597 | 21390 ft | 411 kts | 244° |
| 2026-04-21 20:23 | 53.69859 | -2.08652 | 21386 ft | 409 kts | 229° |
| 2026-04-21 20:23 | 53.67744 | -2.11873 | 21388 ft | 406 kts | 213° |
| 2026-04-21 20:24 | 53.65260 | -2.13999 | 21385 ft | 403 kts | 198° |
| 2026-04-21 20:24 | 53.62545 | -2.15248 | 21375 ft | 402 kts | 192° |
| 2026-04-21 20:24 | 53.59855 | -2.16347 | 21378 ft | 402 kts | 192° |
| 2026-04-21 20:24 | 53.57120 | -2.17472 | 21378 ft | 402 kts | 192° |
| 2026-04-21 20:25 | 53.54407 | -2.18587 | 21378 ft | 402 kts | 192° |
| 2026-04-21 20:25 | 53.51706 | -2.19696 | 21380 ft | 403 kts | 192° |
| 2026-04-21 20:25 | 53.48950 | -2.20826 | 21382 ft | 403 kts | 193° |
| 2026-04-21 20:25 | 53.46236 | -2.21937 | 21383 ft | 403 kts | 193° |
| 2026-04-21 20:26 | 53.43493 | -2.23059 | 21385 ft | 403 kts | 193° |
| 2026-04-21 20:26 | 53.40781 | -2.24167 | 21388 ft | 403 kts | 193° |
| 2026-04-21 20:26 | 53.38057 | -2.25277 | 21391 ft | 403 kts | 193° |
| 2026-04-21 20:26 | 53.35285 | -2.25892 | 21403 ft | 402 kts | 179° |
| 2026-04-21 20:27 | 53.32519 | -2.25316 | 21387 ft | 402 kts | 169° |
| 2026-04-21 20:27 | 53.29763 | -2.24483 | 21390 ft | 402 kts | 169° |
| 2026-04-21 20:27 | 53.27013 | -2.23667 | 21395 ft | 402 kts | 169° |
| 2026-04-21 20:27 | 53.24272 | -2.22856 | 21394 ft | 403 kts | 169° |
| 2026-04-21 20:28 | 53.21490 | -2.22033 | 21396 ft | 403 kts | 169° |
| 2026-04-21 20:28 | 53.18739 | -2.21220 | 21393 ft | 404 kts | 169° |
| 2026-04-21 20:28 | 53.15976 | -2.20406 | 21390 ft | 404 kts | 170° |
| 2026-04-21 20:28 | 53.13173 | -2.20072 | 21396 ft | 405 kts | 183° |
| 2026-04-21 20:29 | 53.10355 | -2.20494 | 21378 ft | 406 kts | 186° |
| 2026-04-21 20:29 | 53.07557 | -2.20943 | 21379 ft | 406 kts | 185° |
| 2026-04-21 20:29 | 53.04742 | -2.21388 | 21377 ft | 407 kts | 185° |
| 2026-04-21 20:29 | 53.01931 | -2.21831 | 21374 ft | 408 kts | 186° |
| 2026-04-21 20:30 | 52.99093 | -2.22277 | 21373 ft | 408 kts | 186° |
| 2026-04-21 20:30 | 52.96242 | -2.22723 | 21371 ft | 409 kts | 186° |
| 2026-04-21 20:30 | 52.93422 | -2.23163 | 21369 ft | 409 kts | 186° |
| 2026-04-21 20:30 | 52.90593 | -2.23603 | 21367 ft | 409 kts | 186° |
| 2026-04-21 20:31 | 52.87722 | -2.24048 | 21368 ft | 409 kts | 186° |
| 2026-04-21 20:31 | 52.84883 | -2.24714 | 21371 ft | 409 kts | 193° |
| 2026-04-21 20:31 | 52.82070 | -2.25801 | 21367 ft | 409 kts | 194° |
| 2026-04-21 20:31 | 52.79283 | -2.26886 | 21369 ft | 410 kts | 194° |
| 2026-04-21 20:32 | 52.76432 | -2.27991 | 21371 ft | 410 kts | 194° |
| 2026-04-21 20:32 | 52.73640 | -2.29070 | 21376 ft | 411 kts | 194° |
| 2026-04-21 20:32 | 52.70832 | -2.30139 | 21372 ft | 411 kts | 193° |
| 2026-04-21 20:32 | 52.67946 | -2.30537 | 21382 ft | 414 kts | 178° |
| 2026-04-21 20:33 | 52.65123 | -2.29666 | 21398 ft | 416 kts | 162° |
| 2026-04-21 20:33 | 52.62504 | -2.27555 | 21378 ft | 417 kts | 148° |
| 2026-04-21 20:33 | 52.60066 | -2.24896 | 21364 ft | 418 kts | 146° |
| 2026-04-21 20:33 | 52.57645 | -2.22248 | 21369 ft | 418 kts | 147° |
| 2026-04-21 20:34 | 52.55213 | -2.19588 | 21373 ft | 419 kts | 146° |
| 2026-04-21 20:34 | 52.52770 | -2.16919 | 21372 ft | 420 kts | 147° |
| 2026-04-21 20:34 | 52.50336 | -2.14267 | 21371 ft | 420 kts | 147° |
| 2026-04-21 20:34 | 52.47925 | -2.11638 | 21370 ft | 421 kts | 147° |
| 2026-04-21 20:35 | 52.45464 | -2.08973 | 21370 ft | 422 kts | 147° |
| 2026-04-21 20:35 | 52.43002 | -2.06306 | 21429 ft | 420 kts | 147° |
| 2026-04-21 20:35 | 52.40612 | -2.03708 | 21990 ft | 414 kts | 147° |
| 2026-04-21 20:35 | 52.38150 | -2.01040 | 22261 ft | 430 kts | 146° |
| 2026-04-21 20:36 | 52.35615 | -1.98294 | 22373 ft | 437 kts | 147° |
| 2026-04-21 20:36 | 52.33098 | -1.95588 | 22522 ft | 432 kts | 147° |
| 2026-04-21 20:36 | 52.30610 | -1.92906 | 22997 ft | 430 kts | 147° |
| 2026-04-21 20:36 | 52.28091 | -1.90186 | 23285 ft | 444 kts | 147° |
| 2026-04-21 20:37 | 52.25462 | -1.87369 | 23380 ft | 455 kts | 147° |
| 2026-04-21 20:37 | 52.22810 | -1.84527 | 23374 ft | 457 kts | 147° |
| 2026-04-21 20:37 | 52.20185 | -1.81709 | 23363 ft | 456 kts | 147° |
| 2026-04-21 20:37 | 52.17520 | -1.78855 | 23356 ft | 457 kts | 147° |
| 2026-04-21 20:38 | 52.14826 | -1.75985 | 23340 ft | 458 kts | 147° |
| 2026-04-21 20:38 | 52.12146 | -1.73131 | 23340 ft | 458 kts | 147° |
| 2026-04-21 20:38 | 52.09487 | -1.70299 | 23338 ft | 459 kts | 147° |
| 2026-04-21 20:38 | 52.06812 | -1.67450 | 23337 ft | 460 kts | 147° |
| 2026-04-21 20:39 | 52.04129 | -1.64592 | 23339 ft | 461 kts | 147° |
| 2026-04-21 20:39 | 52.01459 | -1.61753 | 23204 ft | 463 kts | 147° |
| 2026-04-21 20:39 | 51.98761 | -1.58888 | 22720 ft | 462 kts | 147° |
| 2026-04-21 20:39 | 51.96080 | -1.56057 | 22177 ft | 454 kts | 147° |
| 2026-04-21 20:40 | 51.93435 | -1.53276 | 21565 ft | 448 kts | 147° |
| 2026-04-21 20:40 | 51.90837 | -1.50541 | 20922 ft | 441 kts | 147° |
| 2026-04-21 20:40 | 51.88288 | -1.47861 | 20288 ft | 433 kts | 147° |
| 2026-04-21 20:40 | 51.85732 | -1.45176 | 19689 ft | 426 kts | 147° |
| 2026-04-21 20:41 | 51.83241 | -1.42561 | 19073 ft | 420 kts | 147° |
| 2026-04-21 20:41 | 51.80788 | -1.39989 | 18561 ft | 411 kts | 147° |
| 2026-04-21 20:41 | 51.78392 | -1.37483 | 17999 ft | 402 kts | 147° |
| 2026-04-21 20:41 | 51.75931 | -1.35514 | 17488 ft | 390 kts | 160° |
| 2026-04-21 20:42 | 51.73402 | -1.34216 | 16963 ft | 378 kts | 163° |
| 2026-04-21 20:42 | 51.70934 | -1.32971 | 16467 ft | 367 kts | 162° |
| 2026-04-21 20:42 | 51.68533 | -1.31757 | 15993 ft | 356 kts | 162° |
| 2026-04-21 20:42 | 51.66214 | -1.30586 | 15529 ft | 347 kts | 162° |
| 2026-04-21 20:43 | 51.63988 | -1.29462 | 15080 ft | 337 kts | 162° |
| 2026-04-21 20:43 | 51.61779 | -1.28346 | 14640 ft | 328 kts | 162° |
| 2026-04-21 20:43 | 51.59626 | -1.27261 | 14209 ft | 321 kts | 161° |
| 2026-04-21 20:43 | 51.57507 | -1.26193 | 13785 ft | 314 kts | 161° |
| 2026-04-21 20:44 | 51.55434 | -1.25149 | 13375 ft | 308 kts | 161° |
| 2026-04-21 20:44 | 51.53387 | -1.24119 | 12961 ft | 303 kts | 161° |
| 2026-04-21 20:44 | 51.51375 | -1.23108 | 12558 ft | 298 kts | 161° |
| 2026-04-21 20:44 | 51.49413 | -1.22114 | 12165 ft | 294 kts | 159° |
| 2026-04-21 20:45 | 51.47576 | -1.20820 | 11783 ft | 288 kts | 152° |
| 2026-04-21 20:45 | 51.45767 | -1.19383 | 11396 ft | 284 kts | 152° |
| 2026-04-21 20:45 | 51.44003 | -1.17990 | 11021 ft | 279 kts | 151° |
| 2026-04-21 20:45 | 51.42297 | -1.16646 | 10644 ft | 274 kts | 151° |
| 2026-04-21 20:46 | 51.40583 | -1.15296 | 10295 ft | 265 kts | 151° |
| 2026-04-21 20:46 | 51.38942 | -1.14007 | 9949 ft | 258 kts | 150° |
| 2026-04-21 20:46 | 51.37348 | -1.12755 | 9610 ft | 251 kts | 150° |
| 2026-04-21 20:46 | 51.35809 | -1.11546 | 9276 ft | 244 kts | 149° |
| 2026-04-21 20:47 | 51.34504 | -1.09966 | 8962 ft | 229 kts | 125° |
| 2026-04-21 20:47 | 51.33599 | -1.07913 | 8670 ft | 220 kts | 121° |
| 2026-04-21 20:47 | 51.32752 | -1.05940 | 8374 ft | 215 kts | 121° |
| 2026-04-21 20:47 | 51.31906 | -1.03974 | 8097 ft | 214 kts | 121° |
| 2026-04-21 20:48 | 51.31059 | -1.02001 | 7830 ft | 216 kts | 121° |
| 2026-04-21 20:48 | 51.30200 | -1.00007 | 7513 ft | 215 kts | 121° |
| 2026-04-21 20:48 | 51.29354 | -0.98042 | 7232 ft | 212 kts | 121° |
| 2026-04-21 20:48 | 51.28525 | -0.96127 | 6947 ft | 209 kts | 121° |
| 2026-04-21 20:49 | 51.27700 | -0.94217 | 6675 ft | 205 kts | 121° |
| 2026-04-21 20:49 | 51.26884 | -0.92316 | 6392 ft | 204 kts | 121° |
| 2026-04-21 20:49 | 51.26073 | -0.90440 | 5958 ft | 211 kts | 121° |
| 2026-04-21 20:49 | 51.25226 | -0.88479 | 5568 ft | 210 kts | 121° |
| 2026-04-21 20:50 | 51.24395 | -0.86560 | 5277 ft | 206 kts | 121° |
| 2026-04-21 20:50 | 51.23637 | -0.84657 | 5036 ft | 197 kts | 110° |
| 2026-04-21 20:50 | 51.23252 | -0.82609 | 5022 ft | 192 kts | 102° |
| 2026-04-21 20:50 | 51.22905 | -0.80513 | 5007 ft | 194 kts | 103° |
| 2026-04-21 20:51 | 51.22547 | -0.78373 | 4725 ft | 202 kts | 103° |
| 2026-04-21 20:51 | 51.22181 | -0.76174 | 4333 ft | 202 kts | 103° |
| 2026-04-21 20:51 | 51.21816 | -0.74026 | 4152 ft | 193 kts | 102° |
| 2026-04-21 20:51 | 51.21468 | -0.71974 | 3965 ft | 187 kts | 102° |
| 2026-04-21 20:52 | 51.21135 | -0.70012 | 3806 ft | 178 kts | 102° |
| 2026-04-21 20:52 | 51.20961 | -0.68102 | 3649 ft | 168 kts | 82° |
| 2026-04-21 20:52 | 51.21538 | -0.66578 | 3452 ft | 171 kts | 37° |
| 2026-04-21 20:52 | 51.22747 | -0.66133 | 3157 ft | 186 kts | 2° |
| 2026-04-21 20:53 | 51.23940 | -0.66958 | 3050 ft | 196 kts | 321° |
| 2026-04-21 20:53 | 51.24530 | -0.68950 | 3027 ft | 204 kts | 283° |
| 2026-04-21 20:53 | 51.24780 | -0.71234 | 3013 ft | 211 kts | 283° |
| 2026-04-21 20:53 | 51.25042 | -0.73537 | 3000 ft | 211 kts | 283° |
| 2026-04-21 20:54 | 51.25310 | -0.75859 | 3001 ft | 212 kts | 283° |
| 2026-04-21 20:54 | 51.25578 | -0.78212 | 2998 ft | 213 kts | 283° |
| 2026-04-21 20:54 | 51.25844 | -0.80561 | 3003 ft | 213 kts | 283° |
| 2026-04-21 20:54 | 51.26114 | -0.82911 | 3001 ft | 212 kts | 283° |
| 2026-04-21 20:55 | 51.26378 | -0.85233 | 2998 ft | 212 kts | 283° |
| 2026-04-21 20:55 | 51.26644 | -0.87584 | 3027 ft | 210 kts | 283° |
| 2026-04-21 20:55 | 51.26912 | -0.89934 | 3004 ft | 211 kts | 283° |
| 2026-04-21 20:55 | 51.27180 | -0.92250 | 3000 ft | 212 kts | 284° |
| 2026-04-21 20:56 | 51.27454 | -0.94594 | 3003 ft | 211 kts | 284° |
| 2026-04-21 20:56 | 51.27719 | -0.96896 | 3007 ft | 211 kts | 284° |
| 2026-04-21 20:56 | 51.27988 | -0.99216 | 3006 ft | 212 kts | 284° |
| 2026-04-21 20:56 | 51.28257 | -1.01536 | 3015 ft | 211 kts | 284° |
| 2026-04-21 20:57 | 51.28521 | -1.03859 | 2995 ft | 206 kts | 282° |
| 2026-04-21 20:57 | 51.28373 | -1.06049 | 2913 ft | 195 kts | 240° |
| 2026-04-21 20:57 | 51.27441 | -1.07414 | 2800 ft | 178 kts | 190° |
| 2026-04-21 20:57 | 51.26298 | -1.07400 | 2687 ft | 160 kts | 157° |
| 2026-04-21 20:58 | 51.25196 | -1.07015 | 2582 ft | 161 kts | 158° |
| 2026-04-21 20:58 | 51.24094 | -1.06634 | 2507 ft | 158 kts | 155° |
| 2026-04-21 20:58 | 51.23235 | -1.05727 | 2495 ft | 143 kts | 120° |
| 2026-04-21 20:58 | 51.22507 | -1.04590 | 2508 ft | 153 kts | 144° |
| 2026-04-21 20:59 | 51.21419 | -1.04201 | 2496 ft | 168 kts | 177° |
| 2026-04-21 20:59 | 51.20384 | -1.03695 | 2349 ft | 151 kts | 126° |
| 2026-04-21 20:59 | 51.19960 | -1.02275 | 2111 ft | 138 kts | 89° |
| 2026-04-21 20:59 | 51.20106 | -1.00753 | 1826 ft | 133 kts | 82° |
| 2026-04-21 21:00 | 51.20379 | -0.99334 | 1777 ft | 134 kts | 61° |
| 2026-04-21 21:00 | 51.20877 | -0.98230 | 1961 ft | 117 kts | 60° |
| 2026-04-21 21:00 | 51.21237 | -0.97111 | 2115 ft | 113 kts | 68° |
| 2026-04-21 21:00 | 51.21537 | -0.95943 | 2145 ft | 111 kts | 69° |
| 2026-04-21 21:01 | 51.21857 | -0.94827 | 2183 ft | 110 kts | 66° |
| 2026-04-21 21:01 | 51.22226 | -0.93741 | 2216 ft | 110 kts | 64° |
| 2026-04-21 21:01 | 51.22579 | -0.92651 | 2180 ft | 109 kts | 64° |
| 2026-04-21 21:01 | 51.22935 | -0.91553 | 2107 ft | 109 kts | 65° |
| 2026-04-21 21:02 | 51.23281 | -0.90487 | 2019 ft | 109 kts | 64° |
| 2026-04-21 21:02 | 51.23631 | -0.89429 | 1954 ft | 107 kts | 63° |
| 2026-04-21 21:02 | 51.23979 | -0.88374 | 1821 ft | 107 kts | 63° |
| 2026-04-21 21:02 | 51.24323 | -0.87339 | 1639 ft | 104 kts | 64° |
| 2026-04-21 21:03 | 51.24663 | -0.86333 | 1444 ft | 103 kts | 64° |
| 2026-04-21 21:03 | 51.25001 | -0.85313 | 1306 ft | 105 kts | 64° |
| 2026-04-21 21:03 | 51.25350 | -0.84282 | 1151 ft | 104 kts | 63° |
| 2026-04-21 21:03 | 51.25685 | -0.83284 | 988 ft | 100 kts | 63° |
| 2026-04-21 21:04 | 51.26020 | -0.82280 | 830 ft | 103 kts | 63° |
| 2026-04-21 21:04 | 51.26357 | -0.81269 | 673 ft | 104 kts | 62° |
| 2026-04-21 21:04 | 51.26702 | -0.80240 | 517 ft | 106 kts | 62° |
| 2026-04-21 21:04 | 51.27054 | -0.79196 | 340 ft | 106 kts | 62° |
| 2026-04-21 21:05 | 51.27393 | -0.78186 | 247 ft | 94 kts | 61° |
| 2026-04-21 21:05 | 51.27654 | -0.77403 | 241 ft | 59 kts | 61° |
| 2026-04-21 21:05 | 51.27754 | -0.77109 | 241 ft | 17 kts | 59° |
| 2026-04-21 21:05 | 51.27847 | -0.76979 | 241 ft | 17 kts | 36° |
| 2026-04-21 21:06 | 51.27946 | -0.76871 | 241 ft | 16 kts | 34° |
| 2026-04-21 21:06 | 51.28010 | -0.76801 | 241 ft | 9 kts | 34° |
| 2026-04-21 21:06 | 51.28067 | -0.76810 | 241 ft | 11 kts | 285° |
| 2026-04-21 21:06 | 51.28092 | -0.76954 | 241 ft | 15 kts | 286° |
| 2026-04-21 21:07 | 51.28121 | -0.77111 | 241 ft | 17 kts | 287° |
| 2026-04-21 21:07 | 51.28164 | -0.77314 | 241 ft | 21 kts | 289° |
| 2026-04-21 21:07 | 51.28189 | -0.77456 | 241 ft | 11 kts | 285° |
| 2026-04-21 21:07 | 51.28207 | -0.77544 | 241 ft | 10 kts | 287° |
| 2026-04-21 21:08 | 51.28212 | -0.77666 | 241 ft | 10 kts | 229° |
| 2026-04-21 21:08 | 51.28157 | -0.77739 | 241 ft | 8 kts | 217° |
| 2026-04-21 21:08 | 51.28154 | -0.77798 | 241 ft | 6 kts | 308° |
| 2026-04-21 21:08 | 51.28143 | -0.77827 | 241 ft | 2 kts | 131° |
| 2026-04-21 21:09 | 51.28142 | -0.77824 | 241 ft | 0 kts | 125° |